createdAt,value
2019-04-05T00:00:57.454Z,16.00
2019-04-05T00:01:57.414Z,16.00
2019-04-05T00:02:57.400Z,16.00
2019-04-05T00:03:57.558Z,16.00
2019-04-05T00:04:57.385Z,16.00
2019-04-05T00:06:07.758Z,16.00
2019-04-05T00:06:57.363Z,16.00
2019-04-05T00:07:57.354Z,16.00
2019-04-05T00:08:57.352Z,16.00
2019-04-05T00:09:57.326Z,16.00
2019-04-05T00:10:57.321Z,20.00
2019-04-05T00:11:57.344Z,16.00
2019-04-05T00:12:57.295Z,16.00
2019-04-05T00:13:57.282Z,16.00
2019-04-05T00:14:57.287Z,16.00
2019-04-05T00:15:57.277Z,16.00
2019-04-05T00:16:57.325Z,16.00
2019-04-05T00:17:57.291Z,16.00
2019-04-05T00:18:57.235Z,16.00
2019-04-05T00:19:57.230Z,16.00
2019-04-05T00:20:57.224Z,16.00
2019-04-05T00:21:57.212Z,16.00
2019-04-05T00:22:57.193Z,16.00
2019-04-05T00:23:57.228Z,16.00
2019-04-05T00:24:57.164Z,16.00
2019-04-05T00:25:57.171Z,16.00
2019-04-05T00:26:57.182Z,16.00
2019-04-05T00:27:57.137Z,16.00
2019-04-05T00:28:57.136Z,16.00
2019-04-05T00:29:57.141Z,16.00
2019-04-05T00:30:57.104Z,16.00
2019-04-05T00:31:57.091Z,16.00
2019-04-05T00:32:57.083Z,16.00
2019-04-05T00:33:57.068Z,16.00
2019-04-05T00:34:57.114Z,16.00
2019-04-05T00:35:57.063Z,20.00
2019-04-05T00:37:10.578Z,20.00
2019-04-05T00:37:57.032Z,20.00
2019-04-05T00:38:57.013Z,20.00
2019-04-05T00:39:57.011Z,20.00
2019-04-05T00:40:57.018Z,20.00
2019-04-05T00:41:56.988Z,20.00
2019-04-05T00:42:56.989Z,20.00
2019-04-05T00:43:56.975Z,20.00
2019-04-05T00:44:56.956Z,20.00
2019-04-05T00:45:56.939Z,16.00
2019-04-05T00:46:56.939Z,16.00
2019-04-05T00:47:56.920Z,16.00
2019-04-05T00:48:56.915Z,20.00
2019-04-05T00:49:56.904Z,20.00
2019-04-05T00:50:56.901Z,20.00
2019-04-05T00:51:56.916Z,16.00
2019-04-05T00:52:56.865Z,16.00
2019-04-05T00:53:56.859Z,16.00
2019-04-05T00:54:56.854Z,16.00
2019-04-05T00:55:56.839Z,16.00
2019-04-05T00:56:56.829Z,16.00
2019-04-05T00:57:56.853Z,16.00
2019-04-05T00:58:56.807Z,16.00
2019-04-05T00:59:56.797Z,16.00
2019-04-05T01:00:56.794Z,16.00
2019-04-05T01:01:56.839Z,16.00
2019-04-05T01:02:56.759Z,16.00
2019-04-05T01:03:56.788Z,16.00
2019-04-05T01:04:56.747Z,16.00
2019-04-05T01:05:56.739Z,16.00
2019-04-05T01:06:56.726Z,16.00
2019-04-05T01:08:09.747Z,16.00
2019-04-05T01:08:56.695Z,16.00
2019-04-05T01:09:56.736Z,16.00
2019-04-05T01:11:03.660Z,16.00
2019-04-05T01:11:56.662Z,16.00
2019-04-05T01:12:56.673Z,16.00
2019-04-05T01:13:56.647Z,16.00
2019-04-05T01:14:56.645Z,16.00
2019-04-05T01:15:56.633Z,16.00
2019-04-05T01:16:56.614Z,16.00
2019-04-05T01:17:56.620Z,16.00
2019-04-05T01:18:56.596Z,16.00
2019-04-05T01:19:56.583Z,16.00
2019-04-05T01:20:56.589Z,16.00
2019-04-05T01:21:56.562Z,16.00
2019-04-05T01:22:56.562Z,16.00
2019-04-05T01:23:56.539Z,16.00
2019-04-05T01:24:56.529Z,16.00
2019-04-05T01:25:56.520Z,16.00
2019-04-05T01:26:56.529Z,16.00
2019-04-05T01:27:56.495Z,16.00
2019-04-05T01:28:56.490Z,16.00
2019-04-05T01:29:56.478Z,16.00
2019-04-05T01:30:56.471Z,16.00
2019-04-05T01:31:56.454Z,16.00
2019-04-05T01:32:56.479Z,16.00
2019-04-05T01:33:56.435Z,16.00
2019-04-05T01:34:56.418Z,16.00
2019-04-05T01:35:56.416Z,16.00
2019-04-05T01:36:56.403Z,16.00
2019-04-05T01:37:56.386Z,16.00
2019-04-05T01:38:56.390Z,16.00
2019-04-05T01:39:56.370Z,16.00
2019-04-05T01:40:56.354Z,16.00
2019-04-05T01:42:08.123Z,16.00
2019-04-05T01:42:56.336Z,16.00
2019-04-05T01:43:56.360Z,16.00
2019-04-05T01:44:56.321Z,16.00
2019-04-05T01:45:56.308Z,16.00
2019-04-05T01:46:56.299Z,16.00
2019-04-05T01:47:56.295Z,16.00
2019-04-05T01:48:56.280Z,16.00
2019-04-05T01:49:56.299Z,16.00
2019-04-05T01:50:56.257Z,16.00
2019-04-05T01:51:56.255Z,16.00
2019-04-05T01:52:56.234Z,16.00
2019-04-05T01:53:56.227Z,16.00
2019-04-05T01:54:56.210Z,16.00
2019-04-05T01:55:56.256Z,16.00
2019-04-05T01:56:56.195Z,16.00
2019-04-05T01:57:56.223Z,16.00
2019-04-05T01:58:56.180Z,16.00
2019-04-05T01:59:56.167Z,16.00
2019-04-05T02:00:56.154Z,16.00
2019-04-05T02:01:56.151Z,16.00
2019-04-05T02:02:56.129Z,16.00
2019-04-05T02:03:56.122Z,16.00
2019-04-05T02:04:56.137Z,16.00
2019-04-05T02:05:56.145Z,16.00
2019-04-05T02:06:56.095Z,16.00
2019-04-05T02:07:56.147Z,16.00
2019-04-05T02:08:56.065Z,16.00
2019-04-05T02:09:56.054Z,16.00
2019-04-05T02:10:56.076Z,16.00
2019-04-05T02:11:56.125Z,16.00
2019-04-05T02:13:08.075Z,16.00
2019-04-05T02:13:56.009Z,16.00
2019-04-05T02:14:55.995Z,20.00
2019-04-05T02:16:05.717Z,20.00
2019-04-05T02:16:56.985Z,20.00
2019-04-05T02:17:56.001Z,20.00
2019-04-05T02:18:55.950Z,20.00
2019-04-05T02:19:55.943Z,20.00
2019-04-05T02:20:55.946Z,20.00
2019-04-05T02:21:55.924Z,20.00
2019-04-05T02:22:55.909Z,20.00
2019-04-05T02:23:55.911Z,20.00
2019-04-05T02:24:55.893Z,20.00
2019-04-05T02:25:55.884Z,20.00
2019-04-05T02:26:55.871Z,20.00
2019-04-05T02:27:55.860Z,20.00
2019-04-05T02:28:55.890Z,20.00
2019-04-05T02:29:55.837Z,20.00
2019-04-05T02:30:55.844Z,20.00
2019-04-05T02:31:55.840Z,20.00
2019-04-05T02:32:55.816Z,20.00
2019-04-05T02:33:55.795Z,20.00
2019-04-05T02:34:55.826Z,20.00
2019-04-05T02:35:55.779Z,24.00
2019-04-05T02:36:55.767Z,20.00
2019-04-05T02:37:55.774Z,20.00
2019-04-05T02:38:55.745Z,24.00
2019-04-05T02:39:55.736Z,20.00
2019-04-05T02:40:58.584Z,24.00
2019-04-05T02:41:55.714Z,24.00
2019-04-05T02:42:55.702Z,24.00
2019-04-05T02:44:08.661Z,24.00
2019-04-05T02:44:55.685Z,24.00
2019-04-05T02:45:55.670Z,28.00
2019-04-05T02:46:55.672Z,32.00
2019-04-05T02:47:55.646Z,28.00
2019-04-05T02:49:02.626Z,32.00
2019-04-05T02:49:55.622Z,36.00
2019-04-05T02:50:55.617Z,36.00
2019-04-05T02:51:55.623Z,36.00
2019-04-05T02:52:55.599Z,36.00
2019-04-05T02:53:55.601Z,40.00
2019-04-05T02:54:55.595Z,48.00
2019-04-05T02:55:55.559Z,48.00
2019-04-05T02:56:55.575Z,52.00
2019-04-05T02:57:55.551Z,56.00
2019-04-05T02:58:55.534Z,60.00
2019-04-05T02:59:55.531Z,64.00
2019-04-05T03:00:55.518Z,68.00
2019-04-05T03:01:55.509Z,76.00
2019-04-05T03:02:55.516Z,84.00
2019-04-05T03:03:55.502Z,88.00
2019-04-05T03:04:55.501Z,100.00
2019-04-05T03:05:55.466Z,108.00
2019-04-05T03:06:55.472Z,116.00
2019-04-05T03:07:55.480Z,128.00
2019-04-05T03:08:55.434Z,140.00
2019-04-05T03:09:55.460Z,152.00
2019-04-05T03:10:55.414Z,164.00
2019-04-05T03:11:55.399Z,180.00
2019-04-05T03:12:55.386Z,192.00
2019-04-05T03:13:55.389Z,212.00
2019-04-05T03:14:55.369Z,228.00
2019-04-05T03:15:55.352Z,248.00
2019-04-05T03:16:55.344Z,268.00
2019-04-05T03:17:55.361Z,288.00
2019-04-05T03:18:55.348Z,312.00
2019-04-05T03:20:06.095Z,332.00
2019-04-05T03:20:55.296Z,356.00
2019-04-05T03:21:55.303Z,384.00
2019-04-05T03:22:55.281Z,392.00
2019-04-05T03:23:55.343Z,424.00
2019-04-05T03:24:55.278Z,452.00
2019-04-05T03:25:55.265Z,484.00
2019-04-05T03:26:55.244Z,516.00
2019-04-05T03:27:55.248Z,552.00
2019-04-05T03:28:55.225Z,588.00
2019-04-05T03:29:55.252Z,624.00
2019-04-05T03:30:55.216Z,660.00
2019-04-05T03:31:55.203Z,704.00
2019-04-05T03:32:55.182Z,744.00
2019-04-05T03:33:55.172Z,784.00
2019-04-05T03:34:55.169Z,828.00
2019-04-05T03:35:55.197Z,872.00
2019-04-05T03:36:55.137Z,916.00
2019-04-05T03:37:55.130Z,960.00
2019-04-05T03:38:55.124Z,1008.00
2019-04-05T03:39:55.103Z,1068.00
2019-04-05T03:40:55.094Z,1128.00
2019-04-05T03:41:55.173Z,1192.00
2019-04-05T03:42:55.087Z,1260.00
2019-04-05T03:43:55.062Z,1332.00
2019-04-05T03:44:55.046Z,1400.00
2019-04-05T03:45:55.066Z,1476.00
2019-04-05T03:46:57.521Z,1552.00
2019-04-05T03:47:55.095Z,1632.00
2019-04-05T03:48:55.021Z,1704.00
2019-04-05T03:49:55.058Z,1772.00
2019-04-05T03:51:08.791Z,1844.00
2019-04-05T03:51:54.968Z,1904.00
2019-04-05T03:52:54.956Z,1972.00
2019-04-05T03:53:54.970Z,2036.00
2019-04-05T03:54:54.936Z,2100.00
2019-04-05T03:56:03.489Z,2172.00
2019-04-05T03:56:54.924Z,2240.00
2019-04-05T03:57:54.943Z,2308.00
2019-04-05T03:58:54.901Z,2380.00
2019-04-05T03:59:54.881Z,2448.00
2019-04-05T04:00:54.875Z,2508.00
2019-04-05T04:01:54.871Z,2576.00
2019-04-05T04:02:55.417Z,2640.00
2019-04-05T04:03:54.846Z,2720.00
2019-04-05T04:04:54.842Z,2812.00
2019-04-05T04:05:54.819Z,2912.00
2019-04-05T04:06:54.822Z,3004.00
2019-04-05T04:07:54.805Z,3072.00
2019-04-05T04:08:54.846Z,3152.00
2019-04-05T04:09:54.912Z,3220.00
2019-04-05T04:10:54.774Z,3280.00
2019-04-05T04:11:54.757Z,3344.00
2019-04-05T04:12:54.741Z,3424.00
2019-04-05T04:13:54.749Z,3504.00
2019-04-05T04:14:54.759Z,3580.00
2019-04-05T04:15:54.729Z,3656.00
2019-04-05T04:17:11.078Z,3736.00
2019-04-05T04:17:55.690Z,3804.00
2019-04-05T04:18:54.684Z,3904.00
2019-04-05T04:19:55.426Z,4020.00
2019-04-05T04:20:54.928Z,4140.00
2019-04-05T04:21:54.650Z,4272.00
2019-04-05T04:22:54.637Z,4428.00
2019-04-05T04:23:54.627Z,4560.00
2019-04-05T04:24:54.708Z,4660.00
2019-04-05T04:25:54.644Z,4764.00
2019-04-05T04:27:06.121Z,4868.00
2019-04-05T04:27:54.586Z,4972.00
2019-04-05T04:28:54.573Z,5052.00
2019-04-05T04:29:54.563Z,5116.00
2019-04-05T04:30:54.548Z,5180.00
2019-04-05T04:31:54.573Z,5256.00
2019-04-05T04:32:54.535Z,5296.00
2019-04-05T04:33:54.530Z,5368.00
2019-04-05T04:34:54.509Z,5500.00
2019-04-05T04:35:54.510Z,5592.00
2019-04-05T04:36:54.546Z,5668.00
2019-04-05T04:39:10.772Z,5904.00
2019-04-05T04:40:10.713Z,6000.00
2019-04-05T04:41:10.709Z,6092.00
2019-04-05T04:42:10.697Z,6428.00
2019-04-05T04:43:10.682Z,8008.00
2019-04-05T04:44:10.740Z,10064.00
2019-04-05T04:45:12.525Z,12288.00
2019-04-05T04:46:10.648Z,13528.00
2019-04-05T04:47:10.651Z,13464.00
2019-04-05T04:48:10.680Z,9580.00
2019-04-05T04:49:10.616Z,8540.00
2019-04-05T04:50:10.609Z,8364.00
2019-04-05T04:51:10.604Z,8236.00
2019-04-05T04:52:10.589Z,8236.00
2019-04-05T04:53:10.577Z,8688.00
2019-04-05T04:54:10.606Z,8736.00
2019-04-05T04:55:10.597Z,8672.00
2019-04-05T04:56:10.549Z,8264.00
2019-04-05T04:57:10.534Z,7956.00
2019-04-05T04:58:10.544Z,7804.00
2019-04-05T04:59:10.570Z,7472.00
2019-04-05T05:00:10.576Z,7044.00
2019-04-05T05:01:10.536Z,7004.00
2019-04-05T05:02:10.476Z,7332.00
2019-04-05T05:03:10.475Z,7856.00
2019-04-05T05:04:10.456Z,8564.00
2019-04-05T05:05:10.440Z,10092.00
2019-04-05T05:06:10.484Z,11844.00
2019-04-05T05:07:10.427Z,11456.00
2019-04-05T05:08:10.429Z,9188.00
2019-04-05T05:09:17.899Z,8800.00
2019-04-05T05:10:10.391Z,9548.00
2019-04-05T05:11:14.634Z,10000.00
2019-04-05T05:12:10.374Z,9608.00
2019-04-05T05:13:10.410Z,8788.00
2019-04-05T05:14:10.363Z,8448.00
2019-04-05T05:15:10.438Z,8460.00
2019-04-05T05:16:10.333Z,8464.00
2019-04-05T05:17:10.353Z,8976.00
2019-04-05T05:18:10.942Z,9284.00
2019-04-05T05:19:10.303Z,8988.00
2019-04-05T05:20:10.280Z,8984.00
2019-04-05T05:21:10.273Z,8700.00
2019-04-05T05:22:17.948Z,8904.00
2019-04-05T05:23:10.256Z,9356.00
2019-04-05T05:24:10.251Z,9712.00
2019-04-05T05:25:10.231Z,10384.00
2019-04-05T05:26:10.223Z,10748.00
2019-04-05T05:27:10.209Z,11144.00
2019-04-05T05:28:10.452Z,11420.00
2019-04-05T05:29:10.185Z,10936.00
2019-04-05T05:30:10.174Z,11944.00
2019-04-05T05:31:10.158Z,12704.00
2019-04-05T05:32:10.145Z,12832.00
2019-04-05T05:33:10.134Z,13068.00
2019-04-05T05:34:10.197Z,13204.00
2019-04-05T05:35:10.121Z,13084.00
2019-04-05T05:36:10.613Z,12784.00
2019-04-05T05:37:10.213Z,13604.00
2019-04-05T05:38:10.086Z,13796.00
2019-04-05T05:39:10.081Z,13720.00
2019-04-05T05:40:10.103Z,13952.00
2019-04-05T05:41:10.058Z,13596.00
2019-04-05T05:42:10.041Z,13848.00
2019-04-05T05:43:10.060Z,14012.00
2019-04-05T05:44:10.016Z,13580.00
2019-04-05T05:45:10.064Z,13788.00
2019-04-05T05:46:09.993Z,14432.00
2019-04-05T05:47:09.992Z,14688.00
2019-04-05T05:48:09.969Z,13788.00
2019-04-05T05:49:09.961Z,14464.00
2019-04-05T05:50:09.966Z,16064.00
2019-04-05T05:51:09.959Z,16864.00
2019-04-05T05:52:09.954Z,15616.00
2019-04-05T05:53:22.772Z,16832.00
2019-04-05T05:54:10.039Z,18432.00
2019-04-05T05:55:09.896Z,16800.00
2019-04-05T05:56:09.888Z,17920.00
2019-04-05T05:57:09.891Z,19328.00
2019-04-05T05:58:17.020Z,19072.00
2019-04-05T05:59:10.776Z,22144.00
2019-04-05T06:00:09.873Z,23936.00
2019-04-05T06:01:09.831Z,24736.00
2019-04-05T06:02:09.823Z,26624.00
2019-04-05T06:03:11.247Z,22784.00
2019-04-05T06:04:12.694Z,18624.00
2019-04-05T06:05:09.893Z,16832.00
2019-04-05T06:06:09.787Z,15712.00
2019-04-05T06:07:09.773Z,14628.00
2019-04-05T06:08:09.754Z,14004.00
2019-04-05T06:09:09.849Z,14036.00
2019-04-05T06:10:09.769Z,13720.00
2019-04-05T06:11:09.717Z,13656.00
2019-04-05T06:12:09.705Z,13784.00
2019-04-05T06:13:09.697Z,12976.00
2019-04-05T06:14:09.684Z,12116.00
2019-04-05T06:15:09.684Z,11524.00
2019-04-05T06:16:09.667Z,11224.00
2019-04-05T06:17:09.649Z,11108.00
2019-04-05T06:18:11.997Z,11096.00
2019-04-05T06:19:09.626Z,11112.00
2019-04-05T06:20:09.656Z,11132.00
2019-04-05T06:21:09.605Z,11096.00
2019-04-05T06:22:09.628Z,11092.00
2019-04-05T06:23:09.590Z,11040.00
2019-04-05T06:24:09.609Z,11020.00
2019-04-05T06:25:09.563Z,10980.00
2019-04-05T06:26:09.711Z,10968.00
2019-04-05T06:27:09.543Z,10976.00
2019-04-05T06:28:09.600Z,10956.00
2019-04-05T06:29:21.686Z,10952.00
2019-04-05T06:30:09.509Z,10944.00
2019-04-05T06:31:09.536Z,10852.00
2019-04-05T06:32:09.490Z,10600.00
2019-04-05T06:33:09.472Z,10444.00
2019-04-05T06:34:09.460Z,10384.00
2019-04-05T06:35:09.456Z,10492.00
2019-04-05T06:36:09.440Z,10604.00
2019-04-05T06:37:09.524Z,10556.00
2019-04-05T06:38:09.418Z,10412.00
2019-04-05T06:39:09.431Z,10396.00
2019-04-05T06:40:09.402Z,10428.00
2019-04-05T06:41:09.383Z,10488.00
2019-04-05T06:42:09.528Z,10524.00
2019-04-05T06:43:09.378Z,10556.00
2019-04-05T06:44:09.354Z,10576.00
2019-04-05T06:45:09.402Z,10532.00
2019-04-05T06:46:09.377Z,10612.00
2019-04-05T06:47:09.317Z,10572.00
2019-04-05T06:48:19.044Z,10512.00
2019-04-05T06:49:10.346Z,10536.00
2019-04-05T06:50:09.519Z,10504.00
2019-04-05T06:51:09.375Z,10540.00
2019-04-05T06:52:09.263Z,10496.00
2019-04-05T06:53:09.258Z,10572.00
2019-04-05T06:54:09.351Z,10680.00
2019-04-05T06:55:09.239Z,10660.00
2019-04-05T06:56:09.213Z,10604.00
2019-04-05T06:57:09.281Z,10572.00
2019-04-05T06:58:10.549Z,10624.00
2019-04-05T06:59:09.290Z,10644.00
2019-04-05T07:00:23.557Z,10660.00
2019-04-05T07:01:09.184Z,10728.00
2019-04-05T07:02:09.251Z,10940.00
2019-04-05T07:03:09.154Z,10952.00
2019-04-05T07:04:09.132Z,10952.00
2019-04-05T07:05:09.124Z,10900.00
2019-04-05T07:06:09.163Z,10932.00
2019-04-05T07:07:09.100Z,11008.00
2019-04-05T07:08:09.112Z,10976.00
2019-04-05T07:09:09.078Z,10932.00
2019-04-05T07:10:09.065Z,10852.00
2019-04-05T07:11:09.089Z,10880.00
2019-04-05T07:12:09.050Z,10972.00
2019-04-05T07:13:09.152Z,11040.00
2019-04-05T07:14:09.152Z,11312.00
2019-04-05T07:15:09.187Z,11128.00
2019-04-05T07:16:11.116Z,11272.00
2019-04-05T07:17:09.104Z,11132.00
2019-04-05T07:18:08.992Z,11092.00
2019-04-05T07:19:08.966Z,10908.00
2019-04-05T07:20:08.970Z,11000.00
2019-04-05T07:21:08.958Z,11044.00
2019-04-05T07:22:08.941Z,11248.00
2019-04-05T07:23:08.931Z,11344.00
2019-04-05T07:24:08.909Z,11380.00
2019-04-05T07:25:08.970Z,11400.00
2019-04-05T07:26:08.892Z,11408.00
2019-04-05T07:27:08.878Z,11428.00
2019-04-05T07:28:08.906Z,11464.00
2019-04-05T07:29:08.859Z,11440.00
2019-04-05T07:30:08.851Z,11348.00
2019-04-05T07:31:21.552Z,11188.00
2019-04-05T07:32:08.828Z,11192.00
2019-04-05T07:33:08.816Z,11136.00
2019-04-05T07:34:08.824Z,11240.00
2019-04-05T07:35:08.793Z,11240.00
2019-04-05T07:36:08.780Z,11328.00
2019-04-05T07:37:08.775Z,11200.00
2019-04-05T07:38:09.877Z,11268.00
2019-04-05T07:39:08.753Z,11472.00
2019-04-05T07:40:08.748Z,11588.00
2019-04-05T07:41:08.732Z,11648.00
2019-04-05T07:42:08.722Z,11640.00
2019-04-05T07:43:08.723Z,11664.00
2019-04-05T07:44:08.703Z,11636.00
2019-04-05T07:45:08.727Z,11660.00
2019-04-05T07:46:08.725Z,11736.00
2019-04-05T07:47:08.668Z,11772.00
2019-04-05T07:48:08.654Z,11796.00
2019-04-05T07:49:08.643Z,11764.00
2019-04-05T07:50:08.631Z,11764.00
2019-04-05T07:51:08.639Z,11780.00
2019-04-05T07:52:08.610Z,11816.00
2019-04-05T07:53:08.615Z,11792.00
2019-04-05T07:54:08.601Z,11864.00
2019-04-05T07:55:08.850Z,11860.00
2019-04-05T07:56:08.635Z,11924.00
2019-04-05T07:57:08.689Z,11960.00
2019-04-05T07:58:16.499Z,11988.00
2019-04-05T07:59:08.558Z,12000.00
2019-04-05T08:00:09.617Z,12016.00
2019-04-05T08:01:08.515Z,12036.00
2019-04-05T08:02:08.551Z,12060.00
2019-04-05T08:03:08.493Z,12052.00
2019-04-05T08:04:08.595Z,12076.00
2019-04-05T08:05:08.511Z,12080.00
2019-04-05T08:06:08.457Z,12084.00
2019-04-05T08:07:08.455Z,12100.00
2019-04-05T08:08:08.709Z,12100.00
2019-04-05T08:09:09.457Z,12088.00
2019-04-05T08:10:09.369Z,12100.00
2019-04-05T08:11:17.805Z,12112.00
2019-04-05T08:12:08.436Z,12124.00
2019-04-05T08:13:08.482Z,12132.00
2019-04-05T08:14:08.561Z,12144.00
2019-04-05T08:15:08.361Z,12176.00
2019-04-05T08:16:08.411Z,12196.00
2019-04-05T08:17:08.334Z,12224.00
2019-04-05T08:18:08.326Z,12244.00
2019-04-05T08:19:08.323Z,12256.00
2019-04-05T08:20:08.316Z,12276.00
2019-04-05T08:21:08.391Z,12284.00
2019-04-05T08:22:08.282Z,12308.00
2019-04-05T08:23:08.332Z,12352.00
2019-04-05T08:24:08.790Z,12376.00
2019-04-05T08:25:08.250Z,12392.00
2019-04-05T08:26:08.239Z,12400.00
2019-04-05T08:27:08.292Z,12392.00
2019-04-05T08:28:10.131Z,12404.00
2019-04-05T08:29:08.494Z,12420.00
2019-04-05T08:30:09.250Z,12388.00
2019-04-05T08:31:10.859Z,12408.00
2019-04-05T08:32:14.651Z,12424.00
2019-04-05T08:33:09.248Z,12420.00
2019-04-05T08:34:09.167Z,12448.00
2019-04-05T08:35:16.153Z,12440.00
2019-04-05T08:36:08.140Z,12444.00
2019-04-05T08:37:08.135Z,12348.00
2019-04-05T08:38:08.109Z,12448.00
2019-04-05T08:39:08.112Z,12432.00
2019-04-05T08:40:08.080Z,12428.00
2019-04-05T08:41:08.085Z,12424.00
2019-04-05T08:42:10.660Z,12428.00
2019-04-05T08:43:08.054Z,12432.00
2019-04-05T08:44:08.058Z,12436.00
2019-04-05T08:45:08.034Z,12436.00
2019-04-05T08:46:08.066Z,12428.00
2019-04-05T08:47:08.106Z,12428.00
2019-04-05T08:48:08.239Z,12248.00
2019-04-05T08:49:10.882Z,12260.00
2019-04-05T08:50:07.967Z,12204.00
2019-04-05T08:51:07.984Z,12228.00
2019-04-05T08:52:07.943Z,12324.00
2019-04-05T08:53:08.026Z,12340.00
2019-04-05T08:54:07.976Z,12300.00
2019-04-05T08:55:07.915Z,12276.00
2019-04-05T08:56:07.905Z,12216.00
2019-04-05T08:57:07.889Z,12236.00
2019-04-05T08:58:07.910Z,12196.00
2019-04-05T08:59:07.950Z,12152.00
2019-04-05T09:00:16.728Z,12104.00
2019-04-05T09:01:07.857Z,11968.00
2019-04-05T09:02:29.003Z,12072.00
2019-04-05T09:03:11.842Z,12068.00
2019-04-05T09:04:16.693Z,12036.00
2019-04-05T09:05:07.815Z,12028.00
2019-04-05T09:06:07.856Z,12024.00
2019-04-05T09:07:07.776Z,12000.00
2019-04-05T09:08:07.768Z,11828.00
2019-04-05T09:09:07.759Z,11956.00
2019-04-05T09:10:07.746Z,11924.00
2019-04-05T09:11:07.914Z,11892.00
2019-04-05T09:12:07.964Z,11856.00
2019-04-05T09:13:07.723Z,11852.00
2019-04-05T09:14:07.740Z,11824.00
2019-04-05T09:15:07.700Z,11756.00
2019-04-05T09:16:07.727Z,11796.00
2019-04-05T09:17:07.664Z,11792.00
2019-04-05T09:18:07.658Z,11768.00
2019-04-05T09:19:07.648Z,11672.00
2019-04-05T09:20:07.635Z,11720.00
2019-04-05T09:21:10.021Z,11704.00
2019-04-05T09:22:07.653Z,11684.00
2019-04-05T09:23:07.654Z,11664.00
2019-04-05T09:24:07.596Z,11636.00
2019-04-05T09:25:07.866Z,11520.00
2019-04-05T09:26:07.605Z,11456.00
2019-04-05T09:27:07.610Z,11556.00
2019-04-05T09:28:07.565Z,11580.00
2019-04-05T09:29:09.207Z,11580.00
2019-04-05T09:30:07.538Z,11552.00
2019-04-05T09:31:07.523Z,11536.00
2019-04-05T09:32:07.515Z,11528.00
2019-04-05T09:33:07.545Z,11520.00
2019-04-05T09:34:07.551Z,11472.00
2019-04-05T09:35:18.653Z,11432.00
2019-04-05T09:36:07.494Z,11424.00
2019-04-05T09:37:07.452Z,11408.00
2019-04-05T09:38:07.509Z,11392.00
2019-04-05T09:39:07.463Z,11368.00
2019-04-05T09:40:08.470Z,11340.00
2019-04-05T09:41:07.412Z,11296.00
2019-04-05T09:42:07.443Z,11332.00
2019-04-05T09:43:07.456Z,11300.00
2019-04-05T09:44:07.462Z,11300.00
2019-04-05T09:45:07.456Z,11292.00
2019-04-05T09:46:07.352Z,11300.00
2019-04-05T09:47:07.387Z,11324.00
2019-04-05T09:48:07.338Z,11312.00
2019-04-05T09:49:07.320Z,11300.00
2019-04-05T09:50:07.305Z,11276.00
2019-04-05T09:51:07.384Z,11272.00
2019-04-05T09:52:07.392Z,11256.00
